CheckWX is a tool to help pilots better visualize weather data.  It is not intended as a substitute for an official pre-flight weather briefing.

03:17:48 UTC

KPRB METAR
Paso Robles Municipal Airport
Paso Robles, California, USA
Current

25 mins ago

KPRB 270253Z AUTO 31008KT 10SM SCT047 OVC065 13/06 A2993 RMK AO2 SLP135 T01280061 51021
Observed
May-27 @ 02:53 UTC
Wind
  • 310° at 8 KTS
Visibility
10 SM
Flight Rules
VFR
Cloud Levels
  • Scattered at 4,700' AGL
  • Overcast at 6,500' AGL
Temperature
13°C / 55°F
Dewpoint
C / 43°F
Humidity
63%
Altimeter
29.93" Hg
Pressure
1013.52 hPa
Previous

1 hour ago

KPRB 270153Z AUTO 33011KT 10SM BKN046 14/07 A2992 RMK AO2 WSHFT 0059 SLP129 T01390067
Observed
May-27 @ 01:53 UTC
Wind
  • 330° at 11 KTS
Visibility
10 SM
Flight Rules
VFR
Cloud Levels
  • Broken at 4,600' AGL
Temperature
14°C / 57°F
Dewpoint
C / 45°F
Humidity
63%
Altimeter
29.92" Hg
Pressure
1013.22 hPa
Previous

2 hours ago

KPRB 270119Z AUTO 27011KT 10SM BKN046 17/05 A2990 RMK AO2 WSHFT 0059 T01670050
Observed
May-27 @ 01:19 UTC
Wind
  • 270° at 11 KTS
Visibility
10 SM
Flight Rules
VFR
Cloud Levels
  • Broken at 4,600' AGL
Temperature
17°C / 63°F
Dewpoint
C / 41°F
Humidity
45%
Altimeter
29.9" Hg
Pressure
1012.52 hPa